Time;durP1;ratioP1;P1;durP2;ratioP2;P2;SDS_P1;SDS_P2;PMS_P1;PMS_P2;Temp;Humidity;BMP_temperature;BMP_pressure;BME280_temperature;BME280_humidity;BME280_pressure;Samples;Min_cycle;Max_cycle;Signal;HPM_P1;HPM_P2
2022/03/26 00:02:17;;;;;;;32.33;23.88;;;15.50;60.20;;;;;;4993758;28;20468;-64
2022/03/26 00:04:43;;;;;;;34.88;24.55;;;15.60;60.40;;;;;;4993692;28;20046;-63
2022/03/26 00:07:09;;;;;;;32.05;24.67;;;15.50;60.40;;;;;;4993778;28;20101;-64
2022/03/26 00:09:35;;;;;;;31.08;23.80;;;15.50;60.20;;;;;;4992715;28;20061;-64
2022/03/26 00:12:00;;;;;;;32.90;24.42;;;15.50;60.40;;;;;;4993932;28;20062;-64
2022/03/26 00:14:26;;;;;;;33.42;24.35;;;15.50;60.40;;;;;;4993925;28;20026;-64
2022/03/26 00:16:51;;;;;;;37.03;25.15;;;15.40;60.30;;;;;;4993243;28;20035;-64
2022/03/26 00:19:17;;;;;;;34.20;25.30;;;15.50;60.30;;;;;;4993471;28;20518;-63
2022/03/26 00:21:42;;;;;;;36.97;25.15;;;15.40;60.20;;;;;;4993750;28;20415;-64
2022/03/26 00:24:08;;;;;;;31.98;23.13;;;15.40;60.50;;;;;;4993525;28;20424;-64
2022/03/26 00:26:34;;;;;;;32.10;24.42;;;15.40;60.60;;;;;;4993047;28;20022;-61
2022/03/26 00:29:00;;;;;;;34.90;25.15;;;15.40;60.60;;;;;;4993790;28;20038;-64
2022/03/26 00:31:26;;;;;;;30.40;23.20;;;15.40;60.60;;;;;;4993737;28;20026;-64
2022/03/26 00:33:54;;;;;;;31.25;24.70;;;15.40;60.70;;;;;;4993468;28;20049;-63
2022/03/26 00:36:20;;;;;;;33.90;25.40;;;15.30;60.70;;;;;;4993174;28;20023;-60
2022/03/26 00:38:46;;;;;;;31.08;24.55;;;15.30;60.60;;;;;;4993330;28;20361;-64
2022/03/26 00:41:12;;;;;;;35.25;26.38;;;15.30;60.70;;;;;;4993769;28;20026;-64
2022/03/26 00:43:38;;;;;;;31.17;23.95;;;15.30;60.80;;;;;;4993586;28;20042;-64
2022/03/26 00:46:03;;;;;;;38.20;25.13;;;15.30;60.90;;;;;;4993208;28;20038;-65
2022/03/26 00:48:29;;;;;;;39.92;26.25;;;15.30;61.00;;;;;;4993005;28;20030;-64
2022/03/26 00:50:55;;;;;;;34.38;26.48;;;15.20;61.00;;;;;;4993513;28;20109;-64
2022/03/26 00:53:20;;;;;;;35.13;25.85;;;15.20;61.00;;;;;;4993495;28;20018;-64
2022/03/26 00:55:46;;;;;;;34.05;25.38;;;15.20;61.10;;;;;;4993087;28;20034;-63
2022/03/26 00:58:11;;;;;;;32.97;24.23;;;15.20;61.10;;;;;;4993412;28;20027;-64
2022/03/26 01:00:38;;;;;;;33.38;26.77;;;15.20;61.20;;;;;;4993051;28;20031;-62
2022/03/26 01:03:08;;;;;;;36.50;26.17;;;15.20;61.50;;;;;;4993485;28;20395;-64
2022/03/26 01:05:34;;;;;;;33.25;23.83;;;15.10;61.40;;;;;;4992395;28;20026;-63
2022/03/26 01:08:00;;;;;;;38.42;26.33;;;15.10;61.40;;;;;;4989567;28;20026;-64
2022/03/26 01:10:26;;;;;;;37.00;25.77;;;15.10;61.40;;;;;;4988859;28;20041;-63
2022/03/26 01:12:52;;;;;;;32.83;25.20;;;15.10;61.40;;;;;;4990748;28;20057;-63
2022/03/26 01:15:18;;;;;;;34.60;26.30;;;15.10;61.60;;;;;;4991347;28;20053;-61
2022/03/26 01:17:44;;;;;;;34.90;25.38;;;15.00;61.70;;;;;;4991584;28;20037;-64
2022/03/26 01:20:10;;;;;;;35.28;25.30;;;15.00;61.80;;;;;;4992694;28;20031;-63
2022/03/26 01:22:36;;;;;;;33.40;25.00;;;15.00;61.90;;;;;;4994728;28;20027;-63
2022/03/26 01:25:02;;;;;;;32.72;26.23;;;15.00;61.90;;;;;;4996635;28;20057;-63
2022/03/26 01:27:28;;;;;;;30.25;24.70;;;15.00;61.90;;;;;;4995248;28;20065;-62
2022/03/26 01:29:53;;;;;;;38.97;25.30;;;15.00;62.10;;;;;;4992696;28;20033;-62
2022/03/26 01:32:19;;;;;;;33.35;25.13;;;14.90;62.00;;;;;;4994455;28;20548;-64
2022/03/26 01:34:45;;;;;;;35.67;25.50;;;14.90;62.20;;;;;;4994537;28;20035;-52
2022/03/26 01:37:12;;;;;;;32.20;23.90;;;14.90;62.20;;;;;;4991474;28;20036;-64
2022/03/26 01:39:38;;;;;;;39.20;25.92;;;14.90;62.20;;;;;;4994611;28;20050;-63
2022/03/26 01:42:07;;;;;;;38.17;26.25;;;14.90;62.30;;;;;;4992801;28;20072;-64
2022/03/26 01:44:33;;;;;;;32.58;24.95;;;14.90;62.40;;;;;;4992770;28;20055;-63
2022/03/26 01:47:00;;;;;;;37.40;25.67;;;14.90;62.50;;;;;;4993894;28;20028;-60
2022/03/26 01:49:27;;;;;;;41.55;27.52;;;14.90;62.30;;;;;;4989764;28;20335;-64
2022/03/26 01:51:52;;;;;;;29.98;23.95;;;14.90;62.30;;;;;;4987656;28;20110;-60
2022/03/26 01:54:19;;;;;;;34.08;24.95;;;14.90;62.30;;;;;;4987837;28;20091;-63
2022/03/26 01:56:45;;;;;;;30.48;24.15;;;14.80;62.60;;;;;;4995611;28;20022;-64
2022/03/26 01:59:11;;;;;;;36.90;25.13;;;14.80;62.60;;;;;;4995908;28;20479;-63
2022/03/26 02:01:37;;;;;;;37.47;25.40;;;14.70;62.50;;;;;;4995945;28;20052;-64
2022/03/26 02:04:05;;;;;;;34.65;24.67;;;14.70;62.50;;;;;;4995623;28;20034;-64
2022/03/26 02:06:37;;;;;;;34.95;24.30;;;14.70;63.20;;;;;;4996177;28;20026;-64
2022/03/26 02:09:04;;;;;;;35.63;24.15;;;14.70;62.60;;;;;;4995775;28;20030;-64
2022/03/26 02:11:36;;;;;;;41.17;24.92;;;14.70;62.40;;;;;;4995691;28;20368;-64
2022/03/26 02:14:03;;;;;;;33.37;23.50;;;14.70;62.30;;;;;;4978602;28;20384;-63
2022/03/26 02:16:30;;;;;;;31.00;24.27;;;14.70;62.50;;;;;;4996077;28;20274;-63
2022/03/26 02:18:56;;;;;;;34.22;24.42;;;14.70;62.50;;;;;;4995573;28;20074;-62
2022/03/26 02:21:22;;;;;;;36.55;25.05;;;14.70;62.60;;;;;;4995705;28;20124;-64
2022/03/26 02:23:49;;;;;;;35.92;24.80;;;14.60;62.60;;;;;;4996008;28;20030;-64
2022/03/26 02:26:20;;;;;;;30.58;24.05;;;14.60;62.70;;;;;;4995750;28;20026;-64
2022/03/26 02:28:46;;;;;;;39.95;25.83;;;14.60;62.70;;;;;;4995989;28;20101;-64
2022/03/26 02:31:12;;;;;;;36.40;25.00;;;14.60;62.90;;;;;;4995531;28;20026;-63
2022/03/26 02:33:39;;;;;;;44.85;26.70;;;14.60;62.90;;;;;;4994958;28;20030;-64
2022/03/26 02:36:06;;;;;;;34.17;26.02;;;14.60;62.90;;;;;;4995599;28;20109;-64
2022/03/26 02:38:32;;;;;;;33.53;25.58;;;14.60;63.10;;;;;;4995806;28;20456;-64
2022/03/26 02:40:57;;;;;;;35.28;25.65;;;14.60;63.80;;;;;;4995039;28;20471;-64
2022/03/26 02:43:23;;;;;;;30.60;25.33;;;14.60;63.10;;;;;;4995655;28;20022;-64
2022/03/26 02:45:48;;;;;;;35.97;24.98;;;14.60;63.10;;;;;;4995616;28;20052;-63
2022/03/26 02:48:14;;;;;;;38.17;25.80;;;14.50;63.30;;;;;;4994981;28;20034;-64
2022/03/26 02:50:41;;;;;;;35.47;25.33;;;14.50;63.20;;;;;;4995119;28;20543;-64
2022/03/26 02:53:07;;;;;;;33.28;25.23;;;14.40;63.30;;;;;;4995288;28;20431;-64
2022/03/26 02:55:34;;;;;;;35.78;25.25;;;14.40;63.30;;;;;;4995554;28;20028;-64
2022/03/26 02:57:59;;;;;;;37.85;25.70;;;14.40;63.40;;;;;;4995231;28;20383;-65
2022/03/26 03:00:25;;;;;;;33.70;24.13;;;14.40;63.80;;;;;;4994649;28;20487;-64
2022/03/26 03:02:51;;;;;;;31.45;24.70;;;14.40;63.60;;;;;;4994689;28;20439;-64
2022/03/26 03:05:16;;;;;;;42.25;26.10;;;14.40;63.80;;;;;;4995127;28;20030;-64
2022/03/26 03:07:42;;;;;;;36.53;25.52;;;14.40;63.80;;;;;;4995124;28;20403;-64
2022/03/26 03:10:08;;;;;;;34.35;26.15;;;14.40;63.80;;;;;;4994566;28;20038;-64
2022/03/26 03:12:34;;;;;;;37.15;26.17;;;14.40;64.00;;;;;;4994801;28;20395;-64
2022/03/26 03:14:59;;;;;;;35.38;26.70;;;14.30;64.00;;;;;;4995086;28;20014;-65
2022/03/26 03:17:25;;;;;;;35.72;26.40;;;14.30;64.00;;;;;;4994568;28;20058;-64
2022/03/26 03:19:50;;;;;;;37.42;26.02;;;14.30;64.10;;;;;;4994519;28;20035;-64
2022/03/26 03:22:16;;;;;;;36.53;24.73;;;14.30;64.20;;;;;;4994380;28;20432;-63
2022/03/26 03:24:42;;;;;;;41.30;25.52;;;14.30;64.30;;;;;;4994562;28;20031;-64
2022/03/26 03:27:08;;;;;;;34.90;25.40;;;14.20;64.30;;;;;;4977562;28;20033;-64
2022/03/26 03:29:34;;;;;;;38.67;27.17;;;14.20;64.30;;;;;;4994701;28;20052;-64
2022/03/26 03:32:00;;;;;;;33.80;24.85;;;14.20;64.40;;;;;;4993985;28;20022;-64
2022/03/26 03:34:25;;;;;;;34.90;25.23;;;14.20;64.40;;;;;;4993899;28;20019;-63
2022/03/26 03:36:51;;;;;;;40.63;26.42;;;14.20;65.20;;;;;;4994766;28;20387;-62
2022/03/26 03:39:16;;;;;;;35.63;26.02;;;14.20;64.60;;;;;;4994522;28;20495;-64
2022/03/26 03:41:42;;;;;;;35.13;24.67;;;14.20;64.80;;;;;;4994404;28;20023;-64
2022/03/26 03:44:08;;;;;;;38.42;25.08;;;14.10;64.70;;;;;;4993314;28;20034;-60
2022/03/26 03:46:34;;;;;;;34.58;24.73;;;14.10;64.70;;;;;;4992846;28;20034;-64
2022/03/26 03:49:00;;;;;;;36.75;25.25;;;14.10;64.80;;;;;;4994198;28;20172;-64
2022/03/26 03:51:25;;;;;;;38.88;26.30;;;14.10;64.80;;;;;;4994223;28;20038;-64
2022/03/26 03:53:51;;;;;;;37.60;25.38;;;14.10;64.90;;;;;;4993737;28;20027;-61
2022/03/26 03:56:17;;;;;;;33.85;25.48;;;14.00;64.90;;;;;;4992870;28;20046;-60
2022/03/26 03:58:42;;;;;;;32.10;24.88;;;14.00;64.90;;;;;;4994238;28;20026;-64
2022/03/26 04:01:08;;;;;;;37.28;25.52;;;14.00;65.00;;;;;;4993805;28;20023;-64
2022/03/26 04:03:33;;;;;;;39.03;26.65;;;14.10;65.00;;;;;;4993630;28;20061;-63
2022/03/26 04:05:59;;;;;;;33.65;23.75;;;14.00;65.00;;;;;;4994066;28;20034;-65
2022/03/26 04:08:25;;;;;;;35.78;25.50;;;14.10;65.10;;;;;;4994026;28;20022;-64
2022/03/26 04:10:51;;;;;;;36.53;25.85;;;14.00;65.30;;;;;;4994154;28;20066;-64
2022/03/26 04:13:16;;;;;;;34.25;24.25;;;14.00;65.20;;;;;;4993960;28;20025;-65
2022/03/26 04:15:42;;;;;;;39.53;26.95;;;14.00;65.30;;;;;;4993290;28;20502;-64
2022/03/26 04:18:08;;;;;;;34.00;26.30;;;14.00;65.30;;;;;;4993608;28;20515;-64
2022/03/26 04:20:35;;;;;;;35.28;26.30;;;14.00;65.40;;;;;;4993748;28;20038;-64
2022/03/26 04:23:00;;;;;;;33.55;25.27;;;13.90;65.50;;;;;;4993633;28;20026;-64
2022/03/26 04:25:26;;;;;;;36.42;25.70;;;13.90;65.70;;;;;;4993800;28;20392;-64
2022/03/26 04:27:51;;;;;;;36.10;25.90;;;13.90;65.60;;;;;;4993628;28;20356;-64
2022/03/26 04:30:17;;;;;;;35.50;26.48;;;13.80;65.80;;;;;;4993078;28;20104;-65
2022/03/26 04:32:43;;;;;;;39.58;26.15;;;13.80;65.80;;;;;;4993921;28;20518;-62
2022/03/26 04:35:09;;;;;;;34.78;26.05;;;13.80;65.80;;;;;;4993611;28;20026;-64
2022/03/26 04:37:35;;;;;;;42.50;27.13;;;13.80;65.90;;;;;;4993817;28;20368;-65
2022/03/26 04:40:03;;;;;;;45.95;27.95;;;13.80;65.90;;;;;;4993225;28;20050;-64
2022/03/26 04:42:29;;;;;;;36.80;29.25;;;13.80;66.20;;;;;;4993725;28;20026;-64
2022/03/26 04:44:55;;;;;;;39.10;28.20;;;13.80;66.10;;;;;;4993207;28;20041;-62
2022/03/26 04:47:20;;;;;;;48.85;31.67;;;13.70;66.20;;;;;;4993346;28;20069;-64
2022/03/26 04:49:53;;;;;;;40.28;28.88;;;13.70;66.20;;;;;;4992996;28;20072;-64
2022/03/26 04:52:19;;;;;;;40.08;28.83;;;13.70;66.30;;;;;;4993483;28;20030;-64
2022/03/26 04:54:46;;;;;;;39.15;28.17;;;13.70;66.50;;;;;;4993617;28;20030;-63
2022/03/26 04:57:13;;;;;;;42.13;28.60;;;13.70;66.60;;;;;;4995845;28;20026;-64
2022/03/26 04:59:39;;;;;;;37.03;27.08;;;13.70;66.70;;;;;;4997166;28;20049;-64
2022/03/26 05:02:04;;;;;;;39.90;29.50;;;13.60;66.60;;;;;;4997521;28;20380;-64
2022/03/26 05:04:30;;;;;;;35.92;27.10;;;13.60;66.70;;;;;;4997128;28;20092;-64
2022/03/26 05:06:56;;;;;;;42.30;28.40;;;13.60;66.80;;;;;;4997504;28;20018;-64
2022/03/26 05:09:21;;;;;;;39.33;27.27;;;13.60;66.90;;;;;;4997129;28;20034;-64
2022/03/26 05:11:47;;;;;;;46.72;27.75;;;13.60;67.10;;;;;;4997295;28;20424;-64
2022/03/26 05:14:13;;;;;;;37.28;28.23;;;13.60;67.20;;;;;;4996959;28;20538;-64
2022/03/26 05:16:39;;;;;;;43.65;29.23;;;13.60;67.10;;;;;;4997142;28;20015;-64
2022/03/26 05:19:04;;;;;;;43.67;28.25;;;13.60;67.10;;;;;;4996503;28;20052;-64
2022/03/26 05:21:30;;;;;;;36.80;28.27;;;13.50;67.20;;;;;;4997091;28;20120;-64
2022/03/26 05:23:55;;;;;;;43.30;27.67;;;13.50;67.30;;;;;;4996959;28;20468;-63
2022/03/26 05:26:22;;;;;;;39.90;28.48;;;13.50;67.40;;;;;;4996523;28;20037;-63
2022/03/26 05:28:49;;;;;;;41.28;29.02;;;13.50;67.30;;;;;;4996928;28;20021;-64
2022/03/26 05:31:15;;;;;;;36.40;27.45;;;13.50;67.40;;;;;;4996890;28;20092;-64
2022/03/26 05:33:40;;;;;;;38.58;27.77;;;13.50;67.40;;;;;;4996670;28;20038;-66
2022/03/26 05:36:06;;;;;;;43.03;29.95;;;13.40;67.60;;;;;;4996797;28;20094;-64
2022/03/26 05:38:32;;;;;;;42.95;28.52;;;13.40;67.70;;;;;;4997032;28;20476;-64
2022/03/26 05:40:58;;;;;;;41.72;28.80;;;13.40;67.70;;;;;;4996482;28;20395;-64
2022/03/26 05:43:24;;;;;;;40.45;27.70;;;13.40;67.80;;;;;;4996254;28;20028;-62
2022/03/26 05:45:51;;;;;;;41.50;28.80;;;13.30;68.00;;;;;;4996800;28;20417;-64
2022/03/26 05:48:17;;;;;;;39.88;27.92;;;13.40;67.90;;;;;;4996871;28;20411;-63
2022/03/26 05:50:44;;;;;;;38.75;27.90;;;13.40;68.00;;;;;;4996472;28;20493;-64
2022/03/26 05:53:11;;;;;;;38.92;27.20;;;13.30;68.00;;;;;;4996428;28;20030;-65
2022/03/26 05:55:36;;;;;;;38.95;27.48;;;13.30;68.20;;;;;;4996394;28;20058;-64
2022/03/26 05:58:02;;;;;;;39.63;28.08;;;13.40;68.10;;;;;;4996291;28;20061;-64
2022/03/26 06:00:28;;;;;;;35.70;27.77;;;13.30;68.00;;;;;;4994340;28;20026;-64
2022/03/26 06:02:54;;;;;;;39.92;27.73;;;13.30;68.10;;;;;;4986616;28;20041;-64
2022/03/26 06:05:20;;;;;;;42.03;27.65;;;13.30;68.10;;;;;;4994887;28;20046;-64
2022/03/26 06:07:45;;;;;;;39.28;27.45;;;13.30;68.20;;;;;;4993416;28;20387;-64
2022/03/26 06:10:11;;;;;;;42.88;29.52;;;13.30;68.30;;;;;;4995951;28;20483;-64
2022/03/26 06:12:37;;;;;;;40.35;27.27;;;13.40;68.40;;;;;;4995876;28;20491;-64
2022/03/26 06:15:03;;;;;;;38.85;29.25;;;13.30;68.40;;;;;;4995585;28;20034;-52
2022/03/26 06:17:30;;;;;;;39.33;27.35;;;13.30;68.30;;;;;;4996210;28;20587;-64
2022/03/26 06:19:55;;;;;;;41.13;30.67;;;13.30;68.30;;;;;;4995713;28;20044;-64
2022/03/26 06:22:21;;;;;;;40.80;28.90;;;13.30;68.20;;;;;;4996068;28;20390;-66
2022/03/26 06:24:47;;;;;;;40.90;28.63;;;13.30;68.30;;;;;;4995193;28;20150;-64
2022/03/26 06:27:12;;;;;;;39.05;28.98;;;13.30;68.40;;;;;;4995775;28;20027;-65
2022/03/26 06:29:38;;;;;;;41.65;28.25;;;13.30;68.50;;;;;;4995947;28;20026;-65
2022/03/26 06:32:04;;;;;;;40.08;28.45;;;13.30;68.80;;;;;;4995661;28;20062;-62
2022/03/26 06:34:31;;;;;;;36.58;29.20;;;13.30;68.80;;;;;;4995743;28;20345;-62
2022/03/26 06:36:57;;;;;;;40.10;29.10;;;13.30;68.90;;;;;;4995599;28;20019;-59
2022/03/26 06:39:23;;;;;;;50.40;29.13;;;13.30;68.80;;;;;;4994878;28;20088;-57
2022/03/26 06:41:48;;;;;;;40.88;28.13;;;13.40;68.80;;;;;;4995398;28;20062;-63
2022/03/26 06:44:14;;;;;;;37.92;27.38;;;13.30;68.60;;;;;;4995363;28;20069;-51
2022/03/26 06:46:40;;;;;;;40.80;29.25;;;13.40;68.70;;;;;;4994486;28;20036;-62
2022/03/26 06:49:07;;;;;;;41.60;29.00;;;13.40;68.80;;;;;;4995209;28;20034;-64
2022/03/26 06:51:33;;;;;;;39.10;27.98;;;13.40;68.90;;;;;;4995099;28;20088;-61
2022/03/26 06:53:59;;;;;;;41.45;29.02;;;13.40;69.00;;;;;;4994924;28;20034;-64
2022/03/26 06:56:25;;;;;;;40.15;28.20;;;13.40;68.70;;;;;;4994717;28;20018;-61
2022/03/26 06:58:51;;;;;;;39.35;28.15;;;13.50;68.90;;;;;;4975902;28;20461;-62
2022/03/26 07:01:17;;;;;;;42.72;29.85;;;13.50;68.80;;;;;;4983003;28;20246;-63
2022/03/26 07:03:42;;;;;;;43.80;29.13;;;13.50;68.60;;;;;;4985366;28;20030;-63
2022/03/26 07:06:08;;;;;;;35.20;27.08;;;13.60;68.60;;;;;;4995012;28;20558;-54
2022/03/26 07:08:33;;;;;;;39.88;29.00;;;13.60;68.60;;;;;;4992926;28;20028;-63
2022/03/26 07:10:59;;;;;;;42.38;26.55;;;13.60;68.60;;;;;;4991106;28;20065;-57
2022/03/26 07:13:24;;;;;;;36.03;27.10;;;13.60;68.60;;;;;;4975366;28;20027;-58
2022/03/26 07:15:50;;;;;;;38.72;28.23;;;13.70;68.70;;;;;;4991052;28;20026;-62
2022/03/26 07:18:16;;;;;;;35.40;27.58;;;13.70;68.70;;;;;;4991907;28;20085;-61
2022/03/26 07:20:42;;;;;;;37.97;28.42;;;13.80;68.60;;;;;;4993635;28;20026;-63
2022/03/26 07:23:08;;;;;;;38.60;28.25;;;13.80;68.80;;;;;;4992965;28;20034;-63
2022/03/26 07:25:34;;;;;;;42.33;28.83;;;13.80;68.50;;;;;;4985454;28;20101;-63
2022/03/26 07:28:00;;;;;;;41.03;28.55;;;13.90;68.60;;;;;;4994405;28;20024;-63
2022/03/26 07:30:26;;;;;;;37.28;27.95;;;13.90;68.70;;;;;;4993820;28;20025;-63
2022/03/26 07:32:52;;;;;;;40.70;27.85;;;14.00;68.60;;;;;;4993647;28;20027;-63
2022/03/26 07:35:17;;;;;;;38.92;28.50;;;14.00;68.50;;;;;;4976679;28;20026;-63
2022/03/26 07:37:43;;;;;;;39.88;26.92;;;14.00;68.50;;;;;;4993755;28;20181;-62
2022/03/26 07:40:10;;;;;;;37.28;29.00;;;14.10;68.40;;;;;;4994250;28;20050;-63
2022/03/26 07:42:36;;;;;;;26.55;17.52;;;14.10;68.30;;;;;;4993130;28;20042;-66
2022/03/26 07:45:03;;;;;;;29.92;20.13;;;14.30;69.60;;;;;;4993962;28;20034;-67
2022/03/26 07:47:28;;;;;;;25.85;17.50;;;14.50;68.10;;;;;;4993579;28;20460;-65
2022/03/26 07:49:54;;;;;;;24.00;18.48;;;14.70;68.20;;;;;;4993303;28;20049;-65
2022/03/26 07:52:20;;;;;;;38.28;25.00;;;14.80;67.60;;;;;;4989732;28;20028;-65
2022/03/26 07:54:45;;;;;;;38.70;26.98;;;14.80;67.10;;;;;;4991158;28;20045;-63
2022/03/26 07:57:11;;;;;;;32.33;23.38;;;14.80;66.90;;;;;;4983130;28;20031;-61
2022/03/26 07:59:36;;;;;;;33.40;24.20;;;14.80;67.30;;;;;;4986627;28;20479;-61
2022/03/26 08:02:02;;;;;;;39.92;28.05;;;14.80;67.40;;;;;;4988716;28;20073;-62
2022/03/26 08:04:28;;;;;;;41.83;27.77;;;14.80;67.30;;;;;;4992152;28;20117;-64
2022/03/26 08:06:54;;;;;;;39.28;28.83;;;14.90;67.20;;;;;;4990930;28;20422;-63
2022/03/26 08:09:20;;;;;;;45.15;27.80;;;14.90;66.80;;;;;;4991643;28;20036;-63
2022/03/26 08:11:45;;;;;;;44.70;30.20;;;14.90;66.90;;;;;;4992593;28;20041;-64
2022/03/26 08:14:12;;;;;;;41.53;28.60;;;14.90;66.90;;;;;;4992732;28;20026;-61
2022/03/26 08:16:38;;;;;;;39.53;28.63;;;14.90;66.80;;;;;;4980429;28;20042;-64
2022/03/26 08:19:04;;;;;;;40.70;28.67;;;15.00;66.70;;;;;;4989967;28;20058;-64
2022/03/26 08:21:32;;;;;;;43.75;29.30;;;15.00;65.90;;;;;;4991423;28;20057;-64
2022/03/26 08:23:58;;;;;;;44.70;29.42;;;15.00;65.40;;;;;;4992158;28;20041;-57
2022/03/26 08:26:23;;;;;;;42.33;28.50;;;15.00;65.00;;;;;;4992075;28;20023;-65
2022/03/26 08:28:51;;;;;;;44.97;29.80;;;15.10;65.90;;;;;;4990997;28;20109;-53
2022/03/26 08:31:18;;;;;;;41.90;30.30;;;15.00;65.00;;;;;;4989865;28;20035;-64
2022/03/26 08:33:45;;;;;;;45.75;30.83;;;15.10;65.00;;;;;;4962960;28;20062;-62
2022/03/26 08:36:11;;;;;;;46.63;29.75;;;15.10;64.90;;;;;;4980053;28;20472;-64
2022/03/26 08:38:37;;;;;;;47.17;30.95;;;15.10;64.60;;;;;;4981795;28;20031;-63
2022/03/26 08:41:04;;;;;;;40.13;28.90;;;15.10;64.20;;;;;;4987689;28;20113;-55
2022/03/26 08:43:30;;;;;;;41.90;28.95;;;15.10;64.10;;;;;;4982841;28;20058;-64
2022/03/26 08:45:55;;;;;;;38.67;27.70;;;15.10;63.60;;;;;;4985596;28;20078;-62
2022/03/26 08:48:21;;;;;;;41.47;30.30;;;15.10;63.90;;;;;;4982438;28;20050;-55
2022/03/26 08:50:47;;;;;;;40.20;29.15;;;15.10;64.00;;;;;;4980772;28;20038;-63
2022/03/26 08:53:13;;;;;;;41.40;28.20;;;15.20;64.10;;;;;;4980789;28;20464;-63
2022/03/26 08:55:38;;;;;;;38.05;28.38;;;15.20;63.80;;;;;;4984514;28;20030;-61
2022/03/26 08:58:04;;;;;;;41.65;28.33;;;15.20;63.20;;;;;;4982949;28;20439;-62
2022/03/26 09:00:30;;;;;;;45.13;27.70;;;15.20;63.50;;;;;;4990113;28;20097;-62
2022/03/26 09:02:56;;;;;;;38.17;27.33;;;15.20;63.90;;;;;;4991505;28;20050;-62
2022/03/26 09:05:22;;;;;;;37.17;27.45;;;15.30;63.90;;;;;;4990599;28;20539;-62
2022/03/26 09:07:49;;;;;;;38.72;28.05;;;15.30;63.80;;;;;;4993191;28;20057;-61
2022/03/26 09:10:15;;;;;;;38.45;28.58;;;15.30;63.20;;;;;;4965251;28;20442;-62
2022/03/26 09:12:41;;;;;;;42.65;27.63;;;15.30;62.80;;;;;;4986809;28;20031;-55
2022/03/26 09:15:07;;;;;;;47.70;28.90;;;15.30;62.90;;;;;;4990982;28;20041;-62
2022/03/26 09:17:34;;;;;;;39.85;25.60;;;15.40;62.90;;;;;;4982617;28;20487;-59
2022/03/26 09:20:00;;;;;;;33.90;25.30;;;15.40;63.40;;;;;;4983953;28;20038;-62
2022/03/26 09:22:26;;;;;;;38.03;28.13;;;15.40;63.90;;;;;;4987883;28;20023;-56
2022/03/26 09:24:51;;;;;;;44.97;29.52;;;15.40;63.20;;;;;;4984955;28;20034;-62
2022/03/26 09:27:17;;;;;;;41.58;29.00;;;15.40;63.20;;;;;;4986446;28;20177;-59
2022/03/26 09:29:45;;;;;;;44.80;29.17;;;15.50;63.10;;;;;;4985078;28;20022;-62
2022/03/26 09:32:11;;;;;;;41.35;29.25;;;15.50;63.00;;;;;;4986152;28;20042;-61
2022/03/26 09:34:36;;;;;;;36.17;27.65;;;15.50;62.90;;;;;;4988197;28;20062;-61
2022/03/26 09:37:02;;;;;;;42.28;27.40;;;15.50;62.60;;;;;;4988738;28;20046;-62
2022/03/26 09:39:28;;;;;;;42.25;26.30;;;15.50;63.00;;;;;;4984189;28;20392;-62
2022/03/26 09:41:54;;;;;;;39.40;26.70;;;15.50;62.70;;;;;;4991510;28;20023;-61
2022/03/26 09:44:21;;;;;;;39.25;26.85;;;15.60;62.30;;;;;;4991572;28;20480;-55
2022/03/26 09:46:46;;;;;;;37.05;24.45;;;15.60;62.30;;;;;;4989946;28;20026;-54
2022/03/26 09:49:12;;;;;;;38.53;24.42;;;15.60;61.90;;;;;;4987037;28;20105;-63
2022/03/26 09:51:38;;;;;;;37.42;25.73;;;15.60;62.10;;;;;;4993947;28;20054;-61
2022/03/26 09:54:04;;;;;;;37.38;24.13;;;15.70;62.50;;;;;;4992973;28;20030;-61
2022/03/26 09:56:30;;;;;;;35.95;24.35;;;15.70;62.20;;;;;;4983442;28;20065;-65
2022/03/26 09:58:56;;;;;;;35.05;24.08;;;15.70;61.20;;;;;;4994715;28;20058;-62
2022/03/26 10:01:23;;;;;;;39.38;24.77;;;15.70;60.60;;;;;;4994110;28;20045;-63
2022/03/26 10:04:14;;;;;;;38.75;24.65;;;15.70;60.80;;;;;;4993656;28;20057;-62
2022/03/26 10:06:57;;;;;;;39.22;22.83;;;15.70;60.90;;;;;;4991731;28;20022;-62
2022/03/26 10:09:32;;;;;;;30.92;21.60;;;15.70;60.40;;;;;;4984829;28;20042;-62
2022/03/26 10:12:00;;;;;;;38.33;22.17;;;15.80;60.00;;;;;;4991231;28;20547;-62
2022/03/26 10:14:42;;;;;;;28.90;19.73;;;15.70;60.10;;;;;;4995174;28;20030;-61
2022/03/26 10:17:29;;;;;;;32.47;20.60;;;15.80;59.90;;;;;;4991910;28;20112;-62
2022/03/26 10:19:56;;;;;;;30.10;19.98;;;15.80;60.00;;;;;;4991660;28;20104;-62
2022/03/26 10:22:26;;;;;;;32.05;21.10;;;15.80;59.60;;;;;;4985026;28;20033;-60
2022/03/26 10:24:52;;;;;;;33.75;21.50;;;15.90;59.50;;;;;;4988042;28;20037;-60
2022/03/26 10:27:18;;;;;;;28.77;19.83;;;15.90;59.50;;;;;;4986605;28;20069;-62
2022/03/26 10:29:48;;;;;;;33.17;19.27;;;15.90;58.90;;;;;;4989396;28;20034;-63
2022/03/26 10:32:39;;;;;;;30.60;19.67;;;16.00;59.00;;;;;;4983813;28;20031;-63
2022/03/26 10:35:10;;;;;;;32.58;19.90;;;16.00;58.80;;;;;;4987116;28;20045;-61
2022/03/26 10:37:46;;;;;;;30.98;18.70;;;16.00;59.40;;;;;;4986742;28;20045;-62
2022/03/26 10:40:18;;;;;;;28.50;17.33;;;16.00;59.20;;;;;;4990639;28;20034;-53
2022/03/26 10:42:44;;;;;;;28.63;18.00;;;16.10;59.50;;;;;;4991439;28;20388;-62
2022/03/26 10:45:15;;;;;;;28.00;17.05;;;16.00;59.00;;;;;;4992666;28;20475;-58
2022/03/26 10:47:41;;;;;;;37.22;17.25;;;16.10;59.40;;;;;;4989772;28;20029;-61
2022/03/26 10:50:07;;;;;;;27.83;15.18;;;16.10;59.10;;;;;;4994654;28;20034;-63
2022/03/26 10:52:32;;;;;;;23.33;15.15;;;16.10;60.00;;;;;;4995133;28;20034;-61
2022/03/26 10:55:01;;;;;;;26.50;15.02;;;16.20;59.30;;;;;;4995319;28;20054;-63
2022/03/26 10:57:27;;;;;;;26.75;15.98;;;16.20;58.80;;;;;;4991596;28;20396;-62
2022/03/26 10:59:54;;;;;;;27.63;15.48;;;16.20;58.40;;;;;;4994113;28;20026;-62
2022/03/26 11:02:20;;;;;;;20.52;12.95;;;16.20;58.10;;;;;;4994692;28;20030;-62
2022/03/26 11:04:45;;;;;;;23.13;12.73;;;16.20;57.20;;;;;;4994571;28;20042;-60
2022/03/26 11:07:11;;;;;;;20.92;10.98;;;16.20;57.30;;;;;;4995118;28;20046;-63
2022/03/26 11:09:37;;;;;;;22.35;10.77;;;16.20;57.50;;;;;;4994963;28;20053;-63
2022/03/26 11:12:04;;;;;;;21.55;11.82;;;16.30;57.70;;;;;;4994715;28;20027;-62
2022/03/26 11:14:38;;;;;;;21.25;9.30;;;16.30;57.40;;;;;;4993606;28;20031;-60
2022/03/26 11:17:45;;;;;;;20.60;9.98;;;16.30;57.60;;;;;;4987998;28;20114;-62
2022/03/26 11:20:26;;;;;;;18.15;10.10;;;16.40;57.50;;;;;;4952305;28;20484;-62
2022/03/26 11:22:58;;;;;;;21.98;9.40;;;16.40;57.10;;;;;;4988932;28;20379;-62
2022/03/26 11:25:55;;;;;;;17.60;9.63;;;16.40;57.00;;;;;;4988874;28;20038;-62
2022/03/26 11:28:41;;;;;;;22.90;10.32;;;16.30;56.60;;;;;;4983252;28;20114;-62
2022/03/26 11:31:26;;;;;;;16.25;9.25;;;16.30;57.60;;;;;;4994478;28;20038;-57
2022/03/26 11:34:03;;;;;;;18.98;9.38;;;16.30;57.60;;;;;;4983369;28;20032;-56
2022/03/26 11:36:29;;;;;;;19.98;10.02;;;16.30;57.80;;;;;;4982472;28;20034;-62
2022/03/26 11:39:07;;;;;;;18.33;9.85;;;16.40;57.90;;;;;;4992317;28;20117;-60
2022/03/26 11:41:33;;;;;;;15.45;9.88;;;16.40;57.10;;;;;;4986611;28;20026;-62
2022/03/26 11:44:01;;;;;;;24.48;12.07;;;16.50;57.60;;;;;;4990403;28;20069;-62
2022/03/26 11:52:21;;;;;;;20.33;11.10;;;16.50;58.70;;;;;;4990050;28;20096;-63
2022/03/26 11:54:48;;;;;;;19.58;11.15;;;16.50;58.80;;;;;;4992361;28;20053;-63
2022/03/26 11:57:22;;;;;;;16.65;9.90;;;16.60;58.70;;;;;;4990153;28;20033;-61
2022/03/26 11:59:49;;;;;;;19.98;11.93;;;16.60;58.90;;;;;;4987963;28;20408;-61
2022/03/26 12:02:23;;;;;;;18.92;11.63;;;16.60;58.10;;;;;;4981064;28;20045;-58
2022/03/26 12:08:15;;;;;;;21.23;12.43;;;16.60;58.50;;;;;;4991513;28;20465;-61
2022/03/26 12:10:41;;;;;;;15.52;11.40;;;16.60;59.40;;;;;;4991160;28;20033;-62
2022/03/26 12:13:08;;;;;;;17.85;10.07;;;16.70;58.40;;;;;;4988762;28;20018;-63
2022/03/26 12:15:35;;;;;;;16.15;11.70;;;16.70;57.60;;;;;;4988173;28;20484;-64
2022/03/26 12:18:09;;;;;;;21.13;11.50;;;16.70;57.60;;;;;;4981540;28;20030;-63
2022/03/26 12:20:37;;;;;;;17.52;12.32;;;16.80;59.00;;;;;;4988447;28;20122;-63
2022/03/26 12:23:19;;;;;;;18.80;10.02;;;16.80;58.10;;;;;;4983905;28;20050;-62
2022/03/26 12:25:51;;;;;;;17.40;10.48;;;16.90;59.60;;;;;;4991263;28;20050;-59
2022/03/26 12:28:19;;;;;;;15.18;11.57;;;16.90;58.50;;;;;;4989931;28;20026;-56
2022/03/26 12:30:53;;;;;;;22.00;12.50;;;16.90;58.40;;;;;;4987094;28;20030;-63
2022/03/26 12:33:19;;;;;;;24.23;12.65;;;16.90;57.60;;;;;;4987868;28;20033;-63
2022/03/26 12:35:47;;;;;;;27.00;13.10;;;16.90;58.50;;;;;;4991197;28;20506;-61
2022/03/26 12:38:14;;;;;;;19.13;13.25;;;17.00;58.30;;;;;;4987121;28;20049;-64